createdAt,value
2023-05-08T00:01:48.646Z,2.72
2023-05-08T00:04:20.839Z,3.05
2023-05-08T00:06:51.742Z,5.53
2023-05-08T00:09:22.361Z,3.20
2023-05-08T00:11:52.477Z,2.92
2023-05-08T00:14:22.562Z,2.60
2023-05-08T00:16:55.240Z,2.83
2023-05-08T00:19:25.880Z,2.92
2023-05-08T00:21:56.125Z,3.47
2023-05-08T00:24:26.555Z,3.55
2023-05-08T00:26:56.610Z,3.22
2023-05-08T00:29:27.050Z,2.42
2023-05-08T00:31:59.706Z,4.70
2023-05-08T00:34:29.716Z,3.28
2023-05-08T00:37:00.352Z,2.45
2023-05-08T00:39:31.076Z,2.33
2023-05-08T00:42:01.355Z,3.15
2023-05-08T00:44:31.306Z,2.47
2023-05-08T00:47:04.037Z,3.78
2023-05-08T00:49:35.822Z,3.58
2023-05-08T00:52:08.784Z,2.35
2023-05-08T00:54:39.135Z,2.92
2023-05-08T00:57:10.658Z,4.10
2023-05-08T00:59:42.906Z,3.42
2023-05-08T01:02:16.543Z,5.72
2023-05-08T01:04:47.931Z,3.50
2023-05-08T01:07:18.136Z,4.50
2023-05-08T01:09:48.378Z,3.25
2023-05-08T01:12:23.522Z,3.17
2023-05-08T01:15:07.644Z,3.17
2023-05-08T01:17:53.858Z,5.10
2023-05-08T01:20:35.536Z,4.47
2023-05-08T01:23:46.853Z,4.00
2023-05-08T01:26:46.928Z,2.50
2023-05-08T01:29:34.113Z,2.13
2023-05-08T01:32:15.320Z,3.10
2023-05-08T01:34:54.826Z,3.38
2023-05-08T01:37:33.189Z,3.65
2023-05-08T01:40:13.265Z,3.08
2023-05-08T01:42:52.470Z,4.05
2023-05-08T01:45:25.429Z,3.58
2023-05-08T01:48:07.084Z,3.92
2023-05-08T01:50:41.550Z,3.88
2023-05-08T01:53:17.116Z,3.55
2023-05-08T01:55:51.536Z,4.28
2023-05-08T01:58:22.596Z,2.88
2023-05-08T02:00:53.759Z,2.90
2023-05-08T02:03:27.951Z,5.05
2023-05-08T02:06:00.412Z,3.25
2023-05-08T02:08:32.945Z,3.90
2023-05-08T02:11:04.778Z,3.75
2023-05-08T02:13:36.219Z,3.50
2023-05-08T02:16:07.989Z,3.25
2023-05-08T02:18:43.191Z,3.08
2023-05-08T02:21:18.635Z,3.13
2023-05-08T02:23:49.965Z,3.40
2023-05-08T02:26:21.581Z,5.15
2023-05-08T02:28:52.472Z,4.03
2023-05-08T02:31:24.159Z,5.07
2023-05-08T02:33:57.598Z,6.57
2023-05-08T02:36:30.744Z,2.92
2023-05-08T02:39:03.116Z,4.35
2023-05-08T02:41:36.032Z,4.32
2023-05-08T02:44:06.135Z,4.03
2023-05-08T02:46:47.008Z,3.67
2023-05-08T02:49:30.628Z,2.97
2023-05-08T02:52:13.842Z,2.58
2023-05-08T02:54:47.451Z,2.83
2023-05-08T02:57:25.805Z,3.50
2023-05-08T03:00:02.475Z,4.30
2023-05-08T03:02:40.238Z,3.03
2023-05-08T03:05:18.392Z,3.22
2023-05-08T03:07:53.051Z,3.35
2023-05-08T03:10:28.026Z,4.53
2023-05-08T03:13:00.943Z,3.88
2023-05-08T03:15:36.422Z,3.50
2023-05-08T03:18:11.809Z,3.17
2023-05-08T03:20:57.319Z,3.85
2023-05-08T03:23:30.747Z,3.45
2023-05-08T03:26:02.063Z,3.08
2023-05-08T03:28:33.448Z,4.90
2023-05-08T03:31:04.687Z,3.63
2023-05-08T03:33:36.011Z,2.97
2023-05-08T03:36:16.678Z,3.95
2023-05-08T03:38:48.278Z,4.40
2023-05-08T03:41:19.929Z,4.28
2023-05-08T03:43:51.407Z,4.10
2023-05-08T03:46:23.246Z,5.53
2023-05-08T03:48:54.854Z,6.53
2023-05-08T03:51:29.531Z,4.45
2023-05-08T03:54:00.394Z,4.65
2023-05-08T03:56:33.356Z,4.13
2023-05-08T03:59:12.924Z,3.63
2023-05-08T04:01:51.922Z,5.53
2023-05-08T04:04:30.112Z,5.53
2023-05-08T04:07:09.080Z,3.50
2023-05-08T04:09:54.733Z,4.18
2023-05-08T04:12:34.890Z,4.45
2023-05-08T04:15:13.319Z,4.03
2023-05-08T04:17:47.412Z,5.03
2023-05-08T04:20:22.334Z,5.82
2023-05-08T04:22:57.814Z,5.05
2023-05-08T04:25:29.156Z,6.63
2023-05-08T04:27:59.434Z,6.47
2023-05-08T04:30:31.378Z,3.60
2023-05-08T04:33:02.350Z,5.40
2023-05-08T04:35:32.944Z,5.20
2023-05-08T04:38:05.892Z,3.88
2023-05-08T04:40:41.799Z,5.13
2023-05-08T04:43:13.964Z,6.68
2023-05-08T04:45:49.977Z,4.30
2023-05-08T04:48:20.029Z,5.57
2023-05-08T04:50:50.245Z,5.82
2023-05-08T04:53:23.104Z,4.70
2023-05-08T04:55:53.355Z,4.32
2023-05-08T04:58:23.687Z,4.95
2023-05-08T05:00:54.687Z,5.63
2023-05-08T05:03:25.239Z,4.95
2023-05-08T05:06:18.106Z,4.47
2023-05-08T05:08:51.312Z,6.45
2023-05-08T05:11:21.770Z,5.50
2023-05-08T05:13:52.066Z,4.78
2023-05-08T05:16:22.932Z,4.65
2023-05-08T05:18:53.544Z,5.32
2023-05-08T05:21:29.280Z,4.07
2023-05-08T05:24:02.041Z,4.78
2023-05-08T05:26:36.797Z,5.72
2023-05-08T05:29:10.298Z,3.53
2023-05-08T05:31:44.160Z,4.22
2023-05-08T05:34:14.691Z,5.63
2023-05-08T05:36:46.203Z,3.67
2023-05-08T05:39:19.472Z,4.60
2023-05-08T05:41:49.729Z,5.53
2023-05-08T05:44:19.907Z,3.45
2023-05-08T05:46:50.366Z,3.88
2023-05-08T05:49:20.628Z,3.85
2023-05-08T05:51:50.618Z,3.90
2023-05-08T05:54:23.668Z,5.90
2023-05-08T05:56:53.958Z,4.32
2023-05-08T05:59:24.034Z,4.63
2023-05-08T06:01:54.942Z,4.32
2023-05-08T06:04:25.295Z,4.88
2023-05-08T06:06:55.420Z,5.78
2023-05-08T06:09:27.969Z,6.70
2023-05-08T06:12:01.297Z,6.10
2023-05-08T06:14:31.947Z,6.30
2023-05-08T06:17:02.106Z,5.68
2023-05-08T06:19:32.222Z,6.10
2023-05-08T06:22:02.183Z,5.03
2023-05-08T06:24:35.746Z,6.25
2023-05-08T06:27:05.800Z,4.85
2023-05-08T06:29:35.812Z,6.93
2023-05-08T06:32:06.115Z,4.85
2023-05-08T06:34:36.265Z,3.72
2023-05-08T06:37:07.056Z,4.20
2023-05-08T06:39:39.990Z,4.85
2023-05-08T06:42:10.101Z,3.60
2023-05-08T06:44:43.634Z,4.57
2023-05-08T06:47:13.795Z,4.40
2023-05-08T06:49:43.890Z,5.05
2023-05-08T06:52:14.777Z,6.38
2023-05-08T06:54:56.960Z,4.10
2023-05-08T06:57:29.456Z,4.30
2023-05-08T06:59:59.974Z,5.35
2023-05-08T07:02:30.060Z,4.40
2023-05-08T07:05:00.154Z,4.15
2023-05-08T07:07:37.872Z,4.57
2023-05-08T07:10:13.232Z,5.45
2023-05-08T07:12:44.530Z,6.28
2023-05-08T07:15:26.543Z,5.95
2023-05-08T07:17:57.944Z,5.05
2023-05-08T07:20:41.189Z,5.15
2023-05-08T07:23:14.145Z,4.68
2023-05-08T07:25:47.472Z,6.55
2023-05-08T07:28:23.471Z,5.15
2023-05-08T07:30:53.798Z,5.18
2023-05-08T07:33:23.753Z,4.57
2023-05-08T07:35:56.565Z,3.25
2023-05-08T07:38:26.736Z,5.10
2023-05-08T07:41:01.750Z,5.88
2023-05-08T07:43:31.762Z,6.82
2023-05-08T07:46:02.024Z,5.47
2023-05-08T07:48:32.795Z,4.90
2023-05-08T07:51:11.392Z,4.93
2023-05-08T07:53:41.456Z,5.68
2023-05-08T07:56:14.026Z,4.28
2023-05-08T07:58:47.994Z,3.75
2023-05-08T08:01:19.169Z,5.88
2023-05-08T08:03:51.873Z,5.55
2023-05-08T08:06:22.863Z,7.40
2023-05-08T08:08:54.720Z,5.05
2023-05-08T08:11:27.719Z,6.97
2023-05-08T08:14:00.952Z,5.10
2023-05-08T08:16:33.754Z,7.60
2023-05-08T08:19:03.798Z,4.82
2023-05-08T08:21:34.003Z,5.55
2023-05-08T08:24:03.951Z,5.93
2023-05-08T08:26:38.379Z,6.22
2023-05-08T08:29:11.118Z,4.88
2023-05-08T08:31:41.302Z,5.72
2023-05-08T08:34:11.883Z,5.07
2023-05-08T08:36:42.595Z,3.47
2023-05-08T08:39:14.742Z,5.43
2023-05-08T08:41:48.082Z,6.40
2023-05-08T08:44:18.153Z,5.13
2023-05-08T08:46:54.014Z,4.28
2023-05-08T08:49:31.585Z,5.03
2023-05-08T08:52:09.813Z,4.35
2023-05-08T08:54:41.591Z,6.40
2023-05-08T08:57:23.124Z,5.38
2023-05-08T08:59:53.812Z,4.40
2023-05-08T09:02:26.535Z,4.38
2023-05-08T09:04:59.188Z,4.53
2023-05-08T09:07:30.297Z,3.92
2023-05-08T09:10:02.782Z,2.92
2023-05-08T09:12:42.975Z,4.22
2023-05-08T09:15:13.472Z,6.45
2023-05-08T09:17:43.857Z,4.85
2023-05-08T09:20:17.686Z,3.50
2023-05-08T09:22:48.214Z,4.30
2023-05-08T09:25:19.221Z,5.15
2023-05-08T09:27:53.983Z,5.80
2023-05-08T09:30:24.134Z,4.55
2023-05-08T09:33:04.639Z,5.53
2023-05-08T09:35:39.515Z,4.88
2023-05-08T09:38:09.846Z,3.65
2023-05-08T09:40:39.879Z,5.07
2023-05-08T09:43:17.487Z,3.83
2023-05-08T09:45:53.565Z,3.25
2023-05-08T09:48:40.045Z,4.18
2023-05-08T09:51:12.244Z,6.80
2023-05-08T09:53:45.028Z,3.97
2023-05-08T09:56:30.357Z,2.40
2023-05-08T09:59:15.680Z,5.15
2023-05-08T10:01:46.091Z,3.13
2023-05-08T10:04:16.230Z,4.88
2023-05-08T10:06:46.989Z,2.70
2023-05-08T10:09:18.133Z,4.03
2023-05-08T10:11:55.653Z,5.20
2023-05-08T10:14:30.554Z,4.22
2023-05-08T10:17:03.471Z,2.58
2023-05-08T10:19:37.588Z,3.03
2023-05-08T10:22:08.590Z,3.17
2023-05-08T10:24:44.036Z,5.45
2023-05-08T10:27:20.885Z,2.80
2023-05-08T10:30:04.352Z,2.78
2023-05-08T10:32:41.434Z,3.60
2023-05-08T10:35:15.423Z,3.38
2023-05-08T10:37:48.948Z,2.78
2023-05-08T10:40:21.934Z,1.90
2023-05-08T10:42:53.890Z,2.95
2023-05-08T10:45:30.362Z,2.95
2023-05-08T10:48:18.974Z,3.60
2023-05-08T10:51:02.659Z,2.63
2023-05-08T10:53:39.836Z,2.92
2023-05-08T10:56:21.162Z,3.35
2023-05-08T10:59:08.383Z,3.28
2023-05-08T11:01:42.148Z,4.95
2023-05-08T11:04:34.301Z,4.70
2023-05-08T11:07:11.782Z,4.05
2023-05-08T11:09:51.342Z,3.28
2023-05-08T11:12:31.768Z,4.18
2023-05-08T11:15:06.457Z,4.95
2023-05-08T11:17:39.041Z,3.13
2023-05-08T11:20:17.068Z,2.47
2023-05-08T11:22:50.877Z,4.97
2023-05-08T11:25:20.931Z,3.75
2023-05-08T11:28:15.532Z,5.57
2023-05-08T11:30:47.900Z,3.78
2023-05-08T11:33:21.287Z,4.10
2023-05-08T11:35:57.000Z,4.22
2023-05-08T11:38:36.272Z,5.72
2023-05-08T11:41:10.652Z,4.95
2023-05-08T11:44:34.228Z,3.92
2023-05-08T11:47:08.782Z,3.95
2023-05-08T11:49:41.501Z,3.90
2023-05-08T11:52:11.773Z,2.90
2023-05-08T11:54:42.029Z,4.47
2023-05-08T11:57:14.220Z,3.03
2023-05-08T11:59:45.053Z,4.15
2023-05-08T12:02:16.042Z,3.90
2023-05-08T12:04:50.421Z,6.30
2023-05-08T12:07:21.929Z,4.45
2023-05-08T12:09:52.310Z,3.92
2023-05-08T12:12:25.981Z,3.30
2023-05-08T12:14:56.119Z,4.13
2023-05-08T12:17:29.255Z,3.90
2023-05-08T12:20:16.190Z,7.00
2023-05-08T12:22:53.982Z,6.95
2023-05-08T12:25:24.240Z,3.53
2023-05-08T12:27:54.406Z,3.08
2023-05-08T12:30:26.938Z,4.25
2023-05-08T12:32:57.757Z,5.95
2023-05-08T12:35:32.812Z,6.07
2023-05-08T12:38:05.342Z,4.25
2023-05-08T12:40:43.791Z,3.00
2023-05-08T12:43:27.825Z,4.40
2023-05-08T12:46:00.040Z,2.10
2023-05-08T12:48:30.611Z,3.95
2023-05-08T12:51:08.694Z,3.65
2023-05-08T12:53:40.485Z,4.05
2023-05-08T12:56:11.377Z,3.83
2023-05-08T12:58:41.344Z,4.32
2023-05-08T13:01:13.950Z,2.55
2023-05-08T13:03:47.231Z,6.05
2023-05-08T13:06:26.557Z,3.33
2023-05-08T13:08:57.956Z,4.03
2023-05-08T13:11:38.634Z,3.25
2023-05-08T13:14:09.032Z,3.85
2023-05-08T13:16:48.585Z,5.32
2023-05-08T13:19:21.833Z,3.05
2023-05-08T13:21:54.390Z,3.63
2023-05-08T13:24:25.974Z,2.95
2023-05-08T13:26:56.109Z,2.30
2023-05-08T13:29:26.183Z,2.72
2023-05-08T13:31:58.250Z,3.47
2023-05-08T13:34:28.328Z,3.72
2023-05-08T13:37:03.289Z,3.53
2023-05-08T13:39:37.434Z,2.88
2023-05-08T13:42:20.431Z,6.03
2023-05-08T13:44:50.507Z,3.00
2023-05-08T13:47:20.823Z,3.30
2023-05-08T13:50:08.523Z,2.05
2023-05-08T13:52:48.508Z,2.80
2023-05-08T13:55:21.253Z,2.40
2023-05-08T13:57:51.667Z,3.38
2023-05-08T14:00:28.937Z,3.60
2023-05-08T14:02:59.124Z,1.88
2023-05-08T14:05:30.076Z,3.08
2023-05-08T14:08:02.802Z,2.47
2023-05-08T14:10:33.173Z,1.73
2023-05-08T14:13:04.215Z,2.95
2023-05-08T14:15:37.276Z,1.92
2023-05-08T14:18:08.533Z,2.88
2023-05-08T14:20:39.980Z,3.83
2023-05-08T14:23:15.079Z,2.90
2023-05-08T14:25:46.032Z,3.17
2023-05-08T14:28:16.348Z,3.00
2023-05-08T14:30:46.415Z,2.30
2023-05-08T14:33:18.646Z,1.75
2023-05-08T14:35:51.575Z,1.95
2023-05-08T14:38:24.256Z,2.00
2023-05-08T14:40:55.160Z,1.58
2023-05-08T14:43:25.731Z,2.30
2023-05-08T14:45:58.014Z,2.22
2023-05-08T14:48:30.812Z,3.35
2023-05-08T14:51:01.197Z,3.63
2023-05-08T14:53:33.950Z,2.55
2023-05-08T14:56:07.591Z,3.88
2023-05-08T14:58:38.055Z,2.67
2023-05-08T15:01:08.403Z,2.78
2023-05-08T15:03:41.303Z,3.60
2023-05-08T15:06:12.487Z,3.03
2023-05-08T15:08:45.268Z,2.92
2023-05-08T15:11:15.350Z,1.73
2023-05-08T15:13:47.157Z,2.90
2023-05-08T15:16:17.607Z,2.13
2023-05-08T15:18:47.804Z,2.72
2023-05-08T15:21:19.011Z,3.17
2023-05-08T15:23:53.906Z,4.65
2023-05-08T15:26:30.193Z,2.28
2023-05-08T15:29:01.215Z,3.40
2023-05-08T15:31:31.237Z,1.92
2023-05-08T15:34:01.337Z,1.65
2023-05-08T15:36:34.406Z,1.48
2023-05-08T15:39:09.750Z,2.63
2023-05-08T15:41:41.254Z,1.73
2023-05-08T15:44:11.265Z,1.60
2023-05-08T15:46:41.557Z,5.50
2023-05-08T15:49:14.520Z,2.28
2023-05-08T15:51:44.518Z,2.65
2023-05-08T15:54:17.186Z,2.20
2023-05-08T15:56:47.219Z,3.00
2023-05-08T15:59:17.371Z,1.98
2023-05-08T16:01:47.607Z,1.60
2023-05-08T16:04:21.488Z,1.60
2023-05-08T16:06:51.648Z,2.45
2023-05-08T16:09:24.828Z,2.38
2023-05-08T16:11:54.783Z,1.87
2023-05-08T16:14:24.931Z,2.67
2023-05-08T16:16:55.253Z,2.90
2023-05-08T16:19:27.506Z,2.35
2023-05-08T16:21:57.704Z,2.92
2023-05-08T16:24:30.961Z,1.98
2023-05-08T16:27:00.981Z,1.60
2023-05-08T16:29:38.643Z,1.80
2023-05-08T16:32:09.094Z,3.33
2023-05-08T16:34:39.031Z,2.25
2023-05-08T16:37:14.580Z,1.55
2023-05-08T16:39:47.262Z,1.60
2023-05-08T16:42:18.907Z,3.47
2023-05-08T16:44:48.875Z,2.45
2023-05-08T16:47:18.901Z,2.17
2023-05-08T16:49:49.216Z,1.52
2023-05-08T16:52:20.298Z,1.67
2023-05-08T16:54:52.956Z,1.25
2023-05-08T16:57:22.974Z,1.73
2023-05-08T16:59:53.346Z,1.40
2023-05-08T17:02:23.751Z,2.30
2023-05-08T17:04:53.759Z,3.15
2023-05-08T17:07:24.219Z,1.70
2023-05-08T17:10:01.348Z,1.23
2023-05-08T17:12:31.933Z,1.00
2023-05-08T17:15:02.380Z,2.25
2023-05-08T17:17:42.997Z,2.13
2023-05-08T17:20:15.062Z,1.65
2023-05-08T17:22:45.491Z,1.52
2023-05-08T17:25:18.162Z,1.85
2023-05-08T17:27:51.869Z,1.55
2023-05-08T17:30:24.647Z,1.58
2023-05-08T17:32:54.814Z,1.30
2023-05-08T17:35:24.865Z,1.55
2023-05-08T17:37:55.166Z,1.10
2023-05-08T17:40:29.003Z,2.67
2023-05-08T17:43:00.013Z,1.98
2023-05-08T17:45:30.306Z,1.67
2023-05-08T17:48:00.545Z,1.85
2023-05-08T17:50:30.586Z,1.40
2023-05-08T17:53:00.839Z,1.42
2023-05-08T17:55:41.077Z,0.77
2023-05-08T17:58:11.230Z,4.22
2023-05-08T18:00:41.356Z,2.47
2023-05-08T18:03:12.510Z,1.30
2023-05-08T18:05:42.883Z,1.63
2023-05-08T18:08:12.874Z,0.98
2023-05-08T18:10:45.558Z,1.40
2023-05-08T18:13:15.592Z,1.20
2023-05-08T18:15:46.333Z,0.80
2023-05-08T18:18:16.313Z,1.08
2023-05-08T18:20:46.405Z,0.77
2023-05-08T18:23:16.653Z,0.85
2023-05-08T18:25:49.475Z,2.65
2023-05-08T18:28:19.550Z,1.00
2023-05-08T18:30:49.554Z,1.95
2023-05-08T18:33:19.596Z,2.63
2023-05-08T18:35:49.581Z,1.00
2023-05-08T18:38:19.785Z,0.85
2023-05-08T18:40:53.091Z,1.10
2023-05-08T18:43:25.285Z,0.70
2023-05-08T18:45:55.409Z,2.65
2023-05-08T18:48:25.596Z,1.42
2023-05-08T18:51:07.477Z,1.10
2023-05-08T18:53:39.142Z,1.25
2023-05-08T18:56:11.676Z,1.00
2023-05-08T18:58:42.504Z,0.93
2023-05-08T19:01:13.526Z,1.13
2023-05-08T19:03:44.775Z,1.27
2023-05-08T19:06:18.834Z,1.67
2023-05-08T19:08:52.425Z,0.93
2023-05-08T19:11:22.993Z,1.13
2023-05-08T19:14:01.084Z,1.25
2023-05-08T19:16:32.652Z,0.98
2023-05-08T19:19:03.530Z,1.17
2023-05-08T19:21:36.680Z,1.05
2023-05-08T19:24:08.053Z,1.20
2023-05-08T19:26:41.378Z,1.08
2023-05-08T19:29:12.179Z,1.20
2023-05-08T19:31:43.561Z,1.55
2023-05-08T19:34:14.428Z,1.05
2023-05-08T19:36:47.742Z,1.30
2023-05-08T19:39:18.453Z,0.87
2023-05-08T19:41:49.293Z,0.65
2023-05-08T19:44:20.098Z,1.02
2023-05-08T19:46:50.833Z,1.10
2023-05-08T19:49:21.424Z,0.77
2023-05-08T19:51:54.789Z,1.92
2023-05-08T19:54:25.651Z,0.90
2023-05-08T19:56:58.850Z,1.77
2023-05-08T19:59:29.515Z,1.38
2023-05-08T20:02:00.383Z,1.50
2023-05-08T20:04:32.308Z,2.95
2023-05-08T20:07:07.384Z,2.05
2023-05-08T20:09:38.553Z,1.20
2023-05-08T20:12:11.526Z,1.13
2023-05-08T20:14:42.098Z,1.45
2023-05-08T20:17:13.492Z,1.30
2023-05-08T20:19:44.242Z,1.42
2023-05-08T20:22:17.537Z,2.60
2023-05-08T20:24:48.154Z,1.20
2023-05-08T20:27:18.931Z,1.15
2023-05-08T20:29:49.589Z,1.10
2023-05-08T20:32:22.879Z,0.98
2023-05-08T20:34:53.640Z,1.80
2023-05-08T20:37:31.856Z,3.17
2023-05-08T20:40:04.981Z,1.50
2023-05-08T20:42:35.571Z,1.42
2023-05-08T20:45:06.565Z,1.20
2023-05-08T20:47:37.429Z,0.82
2023-05-08T20:50:09.852Z,1.00
2023-05-08T20:52:43.218Z,2.65
2023-05-08T20:55:16.668Z,1.20
2023-05-08T20:57:47.289Z,1.13
2023-05-08T21:00:18.528Z,1.30
2023-05-08T21:02:49.501Z,1.23
2023-05-08T21:05:20.753Z,1.90
2023-05-08T21:07:58.569Z,3.53
2023-05-08T21:10:32.240Z,1.10
2023-05-08T21:13:03.884Z,1.00
2023-05-08T21:15:35.164Z,1.35
2023-05-08T21:18:06.009Z,0.77
2023-05-08T21:20:37.043Z,0.85
2023-05-08T21:23:10.408Z,1.02
2023-05-08T21:25:40.888Z,1.88
2023-05-08T21:28:11.682Z,0.88
2023-05-08T21:30:46.520Z,1.45
2023-05-08T21:33:19.135Z,1.45
2023-05-08T21:35:51.985Z,1.10
2023-05-08T21:38:40.883Z,0.90
2023-05-08T21:41:14.239Z,0.75
2023-05-08T21:43:44.931Z,0.70
2023-05-08T21:46:15.675Z,1.23
2023-05-08T21:48:46.432Z,1.15
2023-05-08T21:51:16.923Z,1.80
2023-05-08T21:53:50.154Z,1.05
2023-05-08T21:56:22.231Z,1.87
2023-05-08T21:58:55.718Z,1.60
2023-05-08T22:01:26.400Z,3.08
2023-05-08T22:03:57.169Z,1.55
2023-05-08T22:06:28.192Z,1.27
2023-05-08T22:09:02.312Z,1.05
2023-05-08T22:11:32.826Z,1.10
2023-05-08T22:14:05.564Z,1.10
2023-05-08T22:16:39.057Z,1.88
2023-05-08T22:19:10.197Z,0.70
2023-05-08T22:21:43.242Z,1.27
2023-05-08T22:24:19.281Z,1.00
2023-05-08T22:26:49.925Z,0.98
2023-05-08T22:29:23.316Z,0.80
2023-05-08T22:31:55.646Z,1.38
2023-05-08T22:34:26.832Z,1.10
2023-05-08T22:36:59.263Z,1.42
2023-05-08T22:39:32.563Z,3.50
2023-05-08T22:42:03.261Z,0.80
2023-05-08T22:44:33.862Z,1.33
2023-05-08T22:47:08.409Z,1.48
2023-05-08T22:49:42.816Z,1.27
2023-05-08T22:52:17.199Z,2.08
2023-05-08T22:54:50.377Z,1.05
2023-05-08T22:57:28.294Z,1.20
2023-05-08T22:59:58.864Z,1.17
2023-05-08T23:02:35.054Z,1.40
2023-05-08T23:05:18.218Z,1.00
2023-05-08T23:07:57.647Z,1.55
2023-05-08T23:10:31.332Z,1.58
2023-05-08T23:13:01.990Z,1.42
2023-05-08T23:15:33.552Z,0.80
2023-05-08T23:18:04.545Z,2.08
2023-05-08T23:20:35.776Z,0.98
2023-05-08T23:23:09.890Z,0.85
2023-05-08T23:25:50.170Z,0.88
2023-05-08T23:28:23.090Z,1.50
2023-05-08T23:30:53.767Z,1.58
2023-05-08T23:33:27.297Z,0.60
2023-05-08T23:35:58.897Z,1.50
2023-05-08T23:38:36.932Z,1.90
2023-05-08T23:41:11.104Z,1.25
2023-05-08T23:46:14.044Z,0.90
2023-05-08T23:48:44.632Z,2.22
2023-05-08T23:51:19.083Z,2.35
2023-05-08T23:53:53.171Z,6.45
2023-05-08T23:56:28.355Z,2.88
2023-05-08T23:58:59.190Z,2.85
